createdAt,value
2022-10-06T00:01:48.162Z,92.97
2022-10-06T00:06:50.966Z,93.57
2022-10-06T00:11:52.625Z,93.98
2022-10-06T00:16:55.131Z,94.40
2022-10-06T00:21:56.825Z,94.18
2022-10-06T00:26:58.565Z,94.48
2022-10-06T00:32:00.239Z,95.14
2022-10-06T00:37:02.405Z,95.32
2022-10-06T00:42:04.300Z,95.50
2022-10-06T00:47:06.416Z,95.74
2022-10-06T00:52:11.833Z,95.73
2022-10-06T00:57:14.458Z,95.59
2022-10-06T01:02:32.653Z,95.53
2022-10-06T01:07:34.342Z,95.44
2022-10-06T01:12:36.366Z,95.26
2022-10-06T01:18:04.227Z,95.07
2022-10-06T01:23:07.275Z,95.15
2022-10-06T01:28:10.737Z,95.55
2022-10-06T01:33:12.765Z,95.53
2022-10-06T01:38:15.476Z,95.75
2022-10-06T01:43:17.386Z,95.80
2022-10-06T01:48:19.148Z,94.28
2022-10-06T01:53:21.514Z,93.50
2022-10-06T01:58:23.527Z,93.79
2022-10-06T02:03:25.405Z,94.27
2022-10-06T02:08:28.091Z,94.26
2022-10-06T02:13:32.629Z,94.24
2022-10-06T02:18:35.562Z,93.67
2022-10-06T02:23:37.392Z,92.52
2022-10-06T02:28:39.309Z,92.81
2022-10-06T02:33:44.815Z,92.92
2022-10-06T02:38:47.018Z,92.11
2022-10-06T02:43:49.517Z,91.92
2022-10-06T02:48:53.327Z,92.17
2022-10-06T02:53:55.945Z,92.44
2022-10-06T02:58:57.647Z,92.44
2022-10-06T03:04:02.900Z,92.59
2022-10-06T03:09:07.337Z,92.32
2022-10-06T03:14:11.345Z,92.27
2022-10-06T03:19:13.311Z,90.78
2022-10-06T03:24:17.410Z,91.16
2022-10-06T03:29:23.707Z,91.21
2022-10-06T03:34:29.379Z,91.43
2022-10-06T03:39:34.203Z,91.35
2022-10-06T03:44:36.895Z,92.30
2022-10-06T03:49:40.038Z,92.52
2022-10-06T03:54:41.979Z,92.52
2022-10-06T03:59:43.767Z,92.54
2022-10-06T04:04:45.606Z,92.80
2022-10-06T04:09:47.466Z,92.55
2022-10-06T04:14:50.645Z,91.89
2022-10-06T04:19:55.182Z,92.04
2022-10-06T04:24:56.950Z,91.32
2022-10-06T04:29:59.131Z,91.08
2022-10-06T04:35:01.043Z,91.40
2022-10-06T04:40:03.071Z,91.59
2022-10-06T04:45:07.737Z,91.94
2022-10-06T04:50:11.499Z,91.79
2022-10-06T04:55:21.265Z,90.54
2022-10-06T05:00:24.073Z,90.38
2022-10-06T05:05:26.095Z,90.47
2022-10-06T05:10:29.812Z,90.91
2022-10-06T05:15:32.346Z,89.94
2022-10-06T05:20:34.575Z,89.12
2022-10-06T05:25:37.091Z,88.79
2022-10-06T05:30:39.100Z,88.50
2022-10-06T05:35:54.549Z,88.89
2022-10-06T05:41:26.903Z,88.62
2022-10-06T05:46:31.573Z,90.17
2022-10-06T05:51:35.893Z,91.24
2022-10-06T05:56:42.621Z,88.95
2022-10-06T06:01:44.792Z,88.00
2022-10-06T06:07:01.341Z,86.51
2022-10-06T06:12:03.645Z,86.43
2022-10-06T06:17:13.594Z,86.30
2022-10-06T06:22:15.369Z,86.16
2022-10-06T06:27:20.241Z,86.11
2022-10-06T06:32:22.498Z,86.13
2022-10-06T06:37:24.735Z,86.24
2022-10-06T06:42:26.496Z,86.35
2022-10-06T06:47:34.976Z,86.58
2022-10-06T06:52:39.034Z,87.09
2022-10-06T06:57:46.402Z,87.41
2022-10-06T07:02:58.762Z,87.67
2022-10-06T07:08:01.018Z,88.49
2022-10-06T07:13:04.376Z,90.59
2022-10-06T07:18:25.028Z,91.37
2022-10-06T07:23:45.191Z,91.23
2022-10-06T07:28:53.902Z,90.21
2022-10-06T07:33:56.059Z,89.77
2022-10-06T07:38:58.299Z,89.82
2022-10-06T07:44:02.503Z,90.24
2022-10-06T07:49:08.386Z,91.13
2022-10-06T07:54:11.260Z,91.63
2022-10-06T07:59:36.368Z,89.83
2022-10-06T08:04:38.164Z,88.93
2022-10-06T08:09:39.922Z,89.09
2022-10-06T08:14:41.623Z,88.53
2022-10-06T08:19:43.486Z,88.23
2022-10-06T08:25:04.894Z,87.68
2022-10-06T08:30:07.763Z,87.33
2022-10-06T08:35:10.705Z,86.99
2022-10-06T08:40:14.745Z,86.68
2022-10-06T08:45:38.669Z,86.11
2022-10-06T08:51:19.598Z,85.00
2022-10-06T08:56:27.227Z,84.06
2022-10-06T09:01:47.682Z,83.77
2022-10-06T09:07:10.678Z,83.72
2022-10-06T09:12:45.271Z,83.52
2022-10-06T09:17:54.224Z,80.31
2022-10-06T09:22:56.887Z,80.16
2022-10-06T09:28:00.962Z,79.82
2022-10-06T09:33:05.730Z,78.55
2022-10-06T09:38:09.226Z,78.37
2022-10-06T09:43:25.489Z,78.51
2022-10-06T09:48:27.381Z,77.64
2022-10-06T09:53:29.072Z,77.17
2022-10-06T09:58:37.888Z,77.55
2022-10-06T10:04:08.438Z,76.99
2022-10-06T10:09:21.765Z,77.30
2022-10-06T10:14:24.392Z,75.15
2022-10-06T10:19:36.378Z,75.65
2022-10-06T10:24:56.430Z,75.34
2022-10-06T10:30:10.117Z,76.46
2022-10-06T10:35:20.390Z,76.18
2022-10-06T10:41:11.569Z,75.83
2022-10-06T10:46:22.348Z,75.84
2022-10-06T10:51:56.634Z,76.27
2022-10-06T10:56:58.690Z,75.96
2022-10-06T11:02:12.240Z,76.36
2022-10-06T11:07:23.388Z,75.74
2022-10-06T11:12:34.255Z,73.82
2022-10-06T11:17:45.019Z,74.81
2022-10-06T11:23:14.465Z,74.67
2022-10-06T11:28:39.374Z,75.75
2022-10-06T11:33:50.943Z,76.18
2022-10-06T11:39:02.010Z,76.08
2022-10-06T11:44:13.567Z,76.53
2022-10-06T11:49:30.670Z,76.72
2022-10-06T11:54:38.377Z,76.30
2022-10-06T11:59:40.116Z,75.35
2022-10-06T12:05:03.775Z,75.81
2022-10-06T12:10:27.319Z,74.97
2022-10-06T12:21:34.039Z,74.43
2022-10-06T12:26:49.152Z,73.82
2022-10-06T12:32:04.938Z,73.81
2022-10-06T12:37:31.281Z,73.53
2022-10-06T12:42:33.178Z,74.19
2022-10-06T12:47:41.526Z,73.75
2022-10-06T12:52:51.517Z,73.41
2022-10-06T12:57:54.107Z,73.74
2022-10-06T13:02:58.386Z,72.99
2022-10-06T13:08:05.989Z,73.29
2022-10-06T13:13:24.197Z,72.92
2022-10-06T13:18:28.391Z,73.98
2022-10-06T13:23:32.925Z,72.21
2022-10-06T13:28:44.380Z,72.63
2022-10-06T13:33:49.910Z,72.68
2022-10-06T13:38:53.262Z,71.89
2022-10-06T13:44:01.252Z,72.18
2022-10-06T13:49:12.911Z,72.57
2022-10-06T13:54:33.374Z,71.97
2022-10-06T13:59:39.871Z,72.27
2022-10-06T14:04:41.652Z,72.21
2022-10-06T14:09:43.454Z,72.59
2022-10-06T14:14:48.626Z,72.47
2022-10-06T14:19:51.047Z,70.46
2022-10-06T14:24:52.871Z,70.22
2022-10-06T14:29:55.987Z,69.68
2022-10-06T14:34:57.966Z,70.46
2022-10-06T14:40:00.012Z,71.62
2022-10-06T14:45:03.510Z,72.11
2022-10-06T14:50:05.573Z,73.17
2022-10-06T14:55:08.140Z,73.55
2022-10-06T15:00:10.549Z,74.11
2022-10-06T15:05:13.674Z,75.11
2022-10-06T15:10:15.462Z,75.78
2022-10-06T15:15:17.164Z,73.86
2022-10-06T15:20:18.981Z,74.10
2022-10-06T15:25:39.539Z,73.62
2022-10-06T15:30:41.854Z,72.31
2022-10-06T15:36:00.783Z,71.28
2022-10-06T15:41:04.466Z,72.59
2022-10-06T15:46:06.288Z,72.35
2022-10-06T15:51:08.181Z,72.83
2022-10-06T15:56:10.510Z,72.49
2022-10-06T16:01:39.261Z,72.77
2022-10-06T16:06:50.121Z,73.42
2022-10-06T16:11:52.203Z,73.83
2022-10-06T16:17:01.439Z,75.11
2022-10-06T16:22:09.001Z,76.29
2022-10-06T16:27:15.184Z,77.82
2022-10-06T16:32:17.232Z,79.13
2022-10-06T16:37:18.927Z,80.24
2022-10-06T16:42:20.672Z,81.12
2022-10-06T16:47:22.305Z,81.58
2022-10-06T16:52:24.117Z,80.92
2022-10-06T16:57:25.961Z,82.18
2022-10-06T17:02:27.651Z,83.40
2022-10-06T17:07:29.382Z,83.90
2022-10-06T17:12:31.063Z,85.04
2022-10-06T17:17:32.647Z,85.25
2022-10-06T17:22:34.355Z,85.64
2022-10-06T17:27:41.119Z,86.39
2022-10-06T17:32:45.054Z,86.34
2022-10-06T17:37:46.827Z,86.32
2022-10-06T17:42:48.496Z,85.47
2022-10-06T17:47:51.679Z,84.74
2022-10-06T17:52:53.422Z,85.37
2022-10-06T17:57:58.939Z,86.12
2022-10-06T18:03:00.756Z,86.03
2022-10-06T18:08:02.517Z,86.31
2022-10-06T18:13:04.272Z,86.26
2022-10-06T18:18:06.124Z,86.33
2022-10-06T18:23:09.271Z,86.23
2022-10-06T18:28:11.966Z,86.51
2022-10-06T18:38:41.611Z,86.29
2022-10-06T18:43:44.238Z,86.53
2022-10-06T18:48:55.232Z,85.99
2022-10-06T18:54:03.155Z,86.59
2022-10-06T18:59:13.009Z,86.80
2022-10-06T19:04:17.775Z,86.39
2022-10-06T19:09:24.478Z,86.15
2022-10-06T19:14:32.340Z,86.35
2022-10-06T19:19:34.055Z,86.43
2022-10-06T19:24:41.055Z,86.39
2022-10-06T19:29:50.621Z,86.27
2022-10-06T19:34:52.429Z,86.49
2022-10-06T19:39:54.312Z,86.57
2022-10-06T19:44:55.987Z,86.20
2022-10-06T19:50:02.043Z,86.08
2022-10-06T19:55:05.989Z,86.75
2022-10-06T20:00:10.135Z,87.20
2022-10-06T20:05:16.579Z,87.06
2022-10-06T20:10:18.569Z,87.17
2022-10-06T20:15:20.299Z,86.78
2022-10-06T20:20:21.894Z,85.83
2022-10-06T20:25:24.259Z,85.59
2022-10-06T20:30:26.009Z,85.79
2022-10-06T20:35:27.870Z,84.81
2022-10-06T20:40:46.975Z,84.19
2022-10-06T20:45:48.908Z,83.67
2022-10-06T20:50:50.609Z,83.26
2022-10-06T20:55:52.340Z,83.09
2022-10-06T21:00:54.158Z,83.26
2022-10-06T21:05:56.058Z,83.41
2022-10-06T21:10:59.750Z,83.58
2022-10-06T21:16:02.336Z,83.60
2022-10-06T21:21:07.637Z,83.62
2022-10-06T21:26:12.567Z,82.90
2022-10-06T21:31:18.139Z,83.12
2022-10-06T21:36:26.801Z,83.67
2022-10-06T21:41:37.276Z,83.56
2022-10-06T21:46:47.218Z,82.30
2022-10-06T21:51:52.251Z,82.70
2022-10-06T21:56:54.697Z,82.79
2022-10-06T22:01:56.965Z,82.29
2022-10-06T22:06:59.033Z,83.08
2022-10-06T22:12:00.908Z,83.00
2022-10-06T22:17:04.938Z,82.36
2022-10-06T22:22:06.745Z,82.39
2022-10-06T22:27:08.602Z,82.40
2022-10-06T22:32:10.453Z,82.23
2022-10-06T22:37:12.255Z,82.34
2022-10-06T22:42:14.052Z,81.83
2022-10-06T22:47:17.626Z,82.29
2022-10-06T22:52:19.706Z,82.71
2022-10-06T22:57:21.621Z,82.26
2022-10-06T23:02:23.517Z,82.46
2022-10-06T23:07:25.542Z,82.90
2022-10-06T23:12:27.332Z,83.06
2022-10-06T23:17:29.389Z,83.60
2022-10-06T23:22:31.237Z,83.72
2022-10-06T23:27:33.559Z,84.01
2022-10-06T23:32:37.505Z,84.43
2022-10-06T23:37:39.537Z,83.07
2022-10-06T23:42:41.397Z,83.16
2022-10-06T23:47:43.344Z,82.89
2022-10-06T23:52:45.436Z,82.28
2022-10-06T23:57:47.317Z,82.64
